sensor_id;sensor_type;location;lat;lon;timestamp;P1;durP1;ratioP1;P2;durP2;ratioP2
32407;SDS011;18869;55.970;37.502;2022-12-29T00:02:13;3.90;;;3.70;;
32407;SDS011;18869;55.970;37.502;2022-12-29T00:04:42;4.23;;;3.83;;
32407;SDS011;18869;55.970;37.502;2022-12-29T00:07:09;3.90;;;3.60;;
32407;SDS011;18869;55.970;37.502;2022-12-29T00:09:37;3.93;;;3.60;;
32407;SDS011;18869;55.970;37.502;2022-12-29T00:12:05;4.53;;;3.50;;
32407;SDS011;18869;55.970;37.502;2022-12-29T00:14:33;3.80;;;3.47;;
32407;SDS011;18869;55.970;37.502;2022-12-29T00:17:20;6.43;;;3.80;;
32407;SDS011;18869;55.970;37.502;2022-12-29T00:19:47;3.83;;;3.63;;
32407;SDS011;18869;55.970;37.502;2022-12-29T00:22:33;7.50;;;4.00;;
32407;SDS011;18869;55.970;37.502;2022-12-29T00:25:18;5.90;;;3.67;;
32407;SDS011;18869;55.970;37.502;2022-12-29T00:28:04;5.63;;;3.87;;
32407;SDS011;18869;55.970;37.502;2022-12-29T00:30:51;4.23;;;3.60;;
32407;SDS011;18869;55.970;37.502;2022-12-29T00:33:39;3.30;;;3.00;;
32407;SDS011;18869;55.970;37.502;2022-12-29T00:36:24;3.63;;;3.40;;
32407;SDS011;18869;55.970;37.502;2022-12-29T00:38:58;7.50;;;3.87;;
32407;SDS011;18869;55.970;37.502;2022-12-29T00:41:44;5.50;;;3.63;;
32407;SDS011;18869;55.970;37.502;2022-12-29T00:44:30;5.07;;;3.77;;
32407;SDS011;18869;55.970;37.502;2022-12-29T00:46:58;4.07;;;3.00;;
32407;SDS011;18869;55.970;37.502;2022-12-29T00:49:30;4.87;;;4.57;;
32407;SDS011;18869;55.970;37.502;2022-12-29T00:51:59;4.43;;;3.63;;
32407;SDS011;18869;55.970;37.502;2022-12-29T00:54:28;4.83;;;3.30;;
32407;SDS011;18869;55.970;37.502;2022-12-29T00:56:56;4.87;;;3.80;;
32407;SDS011;18869;55.970;37.502;2022-12-29T00:59:23;5.10;;;3.67;;
32407;SDS011;18869;55.970;37.502;2022-12-29T01:01:51;6.80;;;3.93;;
32407;SDS011;18869;55.970;37.502;2022-12-29T01:04:19;7.33;;;3.90;;
32407;SDS011;18869;55.970;37.502;2022-12-29T01:06:50;3.63;;;3.23;;
32407;SDS011;18869;55.970;37.502;2022-12-29T01:09:17;3.67;;;3.37;;
32407;SDS011;18869;55.970;37.502;2022-12-29T01:12:04;4.37;;;3.67;;
32407;SDS011;18869;55.970;37.502;2022-12-29T01:14:31;3.80;;;3.50;;
32407;SDS011;18869;55.970;37.502;2022-12-29T01:16:59;4.10;;;3.70;;
32407;SDS011;18869;55.970;37.502;2022-12-29T01:19:27;4.93;;;3.40;;
32407;SDS011;18869;55.970;37.502;2022-12-29T01:21:57;3.50;;;3.20;;
32407;SDS011;18869;55.970;37.502;2022-12-29T01:24:24;7.40;;;3.50;;
32407;SDS011;18869;55.970;37.502;2022-12-29T01:26:52;4.70;;;3.63;;
32407;SDS011;18869;55.970;37.502;2022-12-29T01:29:20;6.97;;;3.60;;
32407;SDS011;18869;55.970;37.502;2022-12-29T01:31:47;4.63;;;3.40;;
32407;SDS011;18869;55.970;37.502;2022-12-29T01:34:15;3.73;;;3.43;;
32407;SDS011;18869;55.970;37.502;2022-12-29T01:36:43;3.93;;;3.40;;
32407;SDS011;18869;55.970;37.502;2022-12-29T01:39:12;4.43;;;3.23;;
32407;SDS011;18869;55.970;37.502;2022-12-29T01:41:40;4.60;;;3.60;;
32407;SDS011;18869;55.970;37.502;2022-12-29T01:47:19;6.30;;;4.13;;
32407;SDS011;18869;55.970;37.502;2022-12-29T01:49:50;4.00;;;3.60;;
32407;SDS011;18869;55.970;37.502;2022-12-29T01:52:20;9.33;;;4.83;;
32407;SDS011;18869;55.970;37.502;2022-12-29T01:54:49;6.20;;;4.10;;
32407;SDS011;18869;55.970;37.502;2022-12-29T01:57:21;5.97;;;3.60;;
32407;SDS011;18869;55.970;37.502;2022-12-29T01:59:52;5.63;;;3.70;;
32407;SDS011;18869;55.970;37.502;2022-12-29T02:02:21;4.60;;;4.00;;
32407;SDS011;18869;55.970;37.502;2022-12-29T02:04:49;7.37;;;4.73;;
32407;SDS011;18869;55.970;37.502;2022-12-29T02:07:18;7.93;;;4.37;;
32407;SDS011;18869;55.970;37.502;2022-12-29T02:09:46;6.80;;;4.97;;
32407;SDS011;18869;55.970;37.502;2022-12-29T02:12:16;5.33;;;4.70;;
32407;SDS011;18869;55.970;37.502;2022-12-29T02:14:46;9.53;;;5.40;;
32407;SDS011;18869;55.970;37.502;2022-12-29T02:17:16;6.53;;;4.80;;
32407;SDS011;18869;55.970;37.502;2022-12-29T02:22:51;6.70;;;4.50;;
32407;SDS011;18869;55.970;37.502;2022-12-29T02:28:22;5.00;;;4.13;;
32407;SDS011;18869;55.970;37.502;2022-12-29T02:31:13;5.17;;;4.37;;
32407;SDS011;18869;55.970;37.502;2022-12-29T02:33:50;6.53;;;3.90;;
32407;SDS011;18869;55.970;37.502;2022-12-29T02:36:24;4.10;;;3.60;;
32407;SDS011;18869;55.970;37.502;2022-12-29T02:38:59;5.37;;;4.03;;
32407;SDS011;18869;55.970;37.502;2022-12-29T02:41:32;4.10;;;3.67;;
32407;SDS011;18869;55.970;37.502;2022-12-29T02:44:02;6.37;;;3.90;;
32407;SDS011;18869;55.970;37.502;2022-12-29T02:46:35;3.73;;;3.50;;
32407;SDS011;18869;55.970;37.502;2022-12-29T02:49:06;4.77;;;3.50;;
32407;SDS011;18869;55.970;37.502;2022-12-29T02:51:40;6.27;;;3.90;;
32407;SDS011;18869;55.970;37.502;2022-12-29T02:54:12;7.00;;;4.77;;
32407;SDS011;18869;55.970;37.502;2022-12-29T02:56:57;8.53;;;4.53;;
32407;SDS011;18869;55.970;37.502;2022-12-29T02:59:26;6.77;;;4.60;;
32407;SDS011;18869;55.970;37.502;2022-12-29T03:02:11;9.93;;;4.83;;
32407;SDS011;18869;55.970;37.502;2022-12-29T03:04:51;5.07;;;3.80;;
32407;SDS011;18869;55.970;37.502;2022-12-29T03:07:32;5.53;;;4.43;;
32407;SDS011;18869;55.970;37.502;2022-12-29T03:10:07;8.00;;;4.50;;
32407;SDS011;18869;55.970;37.502;2022-12-29T03:12:45;11.27;;;4.63;;
32407;SDS011;18869;55.970;37.502;2022-12-29T03:15:34;5.93;;;4.40;;
32407;SDS011;18869;55.970;37.502;2022-12-29T03:18:26;9.07;;;4.00;;
32407;SDS011;18869;55.970;37.502;2022-12-29T03:21:04;5.13;;;4.27;;
32407;SDS011;18869;55.970;37.502;2022-12-29T03:23:34;6.00;;;5.10;;
32407;SDS011;18869;55.970;37.502;2022-12-29T03:26:06;6.57;;;4.33;;
32407;SDS011;18869;55.970;37.502;2022-12-29T03:28:38;9.00;;;4.70;;
32407;SDS011;18869;55.970;37.502;2022-12-29T03:31:07;5.53;;;4.87;;
32407;SDS011;18869;55.970;37.502;2022-12-29T03:33:39;7.17;;;4.50;;
32407;SDS011;18869;55.970;37.502;2022-12-29T03:36:10;10.27;;;6.67;;
32407;SDS011;18869;55.970;37.502;2022-12-29T03:38:42;9.93;;;4.80;;
32407;SDS011;18869;55.970;37.502;2022-12-29T03:41:14;5.17;;;4.77;;
32407;SDS011;18869;55.970;37.502;2022-12-29T03:43:45;6.60;;;4.30;;
32407;SDS011;18869;55.970;37.502;2022-12-29T03:46:12;6.97;;;5.17;;
32407;SDS011;18869;55.970;37.502;2022-12-29T03:48:42;8.30;;;4.40;;
32407;SDS011;18869;55.970;37.502;2022-12-29T03:51:09;7.27;;;4.63;;
32407;SDS011;18869;55.970;37.502;2022-12-29T03:53:38;8.13;;;4.40;;
32407;SDS011;18869;55.970;37.502;2022-12-29T03:56:05;9.60;;;5.30;;
32407;SDS011;18869;55.970;37.502;2022-12-29T03:58:33;8.50;;;4.40;;
32407;SDS011;18869;55.970;37.502;2022-12-29T04:01:02;7.50;;;4.80;;
32407;SDS011;18869;55.970;37.502;2022-12-29T04:03:31;10.43;;;5.10;;
32407;SDS011;18869;55.970;37.502;2022-12-29T04:06:00;9.60;;;4.40;;
32407;SDS011;18869;55.970;37.502;2022-12-29T04:08:28;8.50;;;5.30;;
32407;SDS011;18869;55.970;37.502;2022-12-29T04:10:57;10.17;;;5.60;;
32407;SDS011;18869;55.970;37.502;2022-12-29T04:13:26;8.70;;;6.10;;
32407;SDS011;18869;55.970;37.502;2022-12-29T04:15:54;10.00;;;6.80;;
32407;SDS011;18869;55.970;37.502;2022-12-29T04:18:22;11.37;;;7.60;;
32407;SDS011;18869;55.970;37.502;2022-12-29T04:20:50;9.43;;;7.60;;
32407;SDS011;18869;55.970;37.502;2022-12-29T04:23:30;6.63;;;5.33;;
32407;SDS011;18869;55.970;37.502;2022-12-29T04:25:59;7.33;;;4.80;;
32407;SDS011;18869;55.970;37.502;2022-12-29T04:28:27;7.73;;;5.37;;
32407;SDS011;18869;55.970;37.502;2022-12-29T04:30:57;7.33;;;4.87;;
32407;SDS011;18869;55.970;37.502;2022-12-29T04:33:26;5.80;;;4.37;;
32407;SDS011;18869;55.970;37.502;2022-12-29T04:35:54;5.70;;;5.20;;
32407;SDS011;18869;55.970;37.502;2022-12-29T04:38:22;5.93;;;5.33;;
32407;SDS011;18869;55.970;37.502;2022-12-29T04:40:52;7.33;;;4.40;;
32407;SDS011;18869;55.970;37.502;2022-12-29T04:43:21;8.27;;;4.50;;
32407;SDS011;18869;55.970;37.502;2022-12-29T04:45:51;5.97;;;4.40;;
32407;SDS011;18869;55.970;37.502;2022-12-29T04:48:20;6.70;;;4.77;;
32407;SDS011;18869;55.970;37.502;2022-12-29T04:50:48;9.73;;;6.10;;
32407;SDS011;18869;55.970;37.502;2022-12-29T04:53:16;11.87;;;7.63;;
32407;SDS011;18869;55.970;37.502;2022-12-29T04:55:48;11.03;;;7.97;;
32407;SDS011;18869;55.970;37.502;2022-12-29T04:58:18;12.67;;;6.90;;
32407;SDS011;18869;55.970;37.502;2022-12-29T05:00:47;12.83;;;6.33;;
32407;SDS011;18869;55.970;37.502;2022-12-29T05:03:15;7.07;;;5.77;;
32407;SDS011;18869;55.970;37.502;2022-12-29T05:05:43;10.57;;;5.73;;
32407;SDS011;18869;55.970;37.502;2022-12-29T05:08:11;9.97;;;5.40;;
32407;SDS011;18869;55.970;37.502;2022-12-29T05:10:43;6.73;;;5.47;;
32407;SDS011;18869;55.970;37.502;2022-12-29T05:13:12;16.03;;;5.70;;
32407;SDS011;18869;55.970;37.502;2022-12-29T05:15:46;13.03;;;5.67;;
32407;SDS011;18869;55.970;37.502;2022-12-29T05:18:15;6.27;;;4.70;;
32407;SDS011;18869;55.970;37.502;2022-12-29T05:20:44;7.27;;;5.33;;
32407;SDS011;18869;55.970;37.502;2022-12-29T05:23:12;7.37;;;5.57;;
32407;SDS011;18869;55.970;37.502;2022-12-29T05:25:40;5.93;;;5.43;;
32407;SDS011;18869;55.970;37.502;2022-12-29T05:28:09;6.30;;;5.80;;
32407;SDS011;18869;55.970;37.502;2022-12-29T05:30:38;9.50;;;5.80;;
32407;SDS011;18869;55.970;37.502;2022-12-29T05:33:07;6.23;;;5.63;;
32407;SDS011;18869;55.970;37.502;2022-12-29T05:35:38;8.10;;;6.13;;
32407;SDS011;18869;55.970;37.502;2022-12-29T05:38:06;9.67;;;5.57;;
32407;SDS011;18869;55.970;37.502;2022-12-29T05:40:34;8.93;;;5.80;;
32407;SDS011;18869;55.970;37.502;2022-12-29T05:43:02;10.60;;;5.93;;
32407;SDS011;18869;55.970;37.502;2022-12-29T05:45:31;7.03;;;5.60;;
32407;SDS011;18869;55.970;37.502;2022-12-29T05:47:59;10.97;;;7.47;;
32407;SDS011;18869;55.970;37.502;2022-12-29T05:50:29;10.13;;;5.47;;
32407;SDS011;18869;55.970;37.502;2022-12-29T05:53:00;7.67;;;6.83;;
32407;SDS011;18869;55.970;37.502;2022-12-29T05:55:27;6.57;;;5.50;;
32407;SDS011;18869;55.970;37.502;2022-12-29T05:57:55;6.43;;;5.10;;
32407;SDS011;18869;55.970;37.502;2022-12-29T06:00:23;7.57;;;5.70;;
32407;SDS011;18869;55.970;37.502;2022-12-29T06:02:51;10.53;;;6.47;;
32407;SDS011;18869;55.970;37.502;2022-12-29T06:05:19;5.97;;;5.20;;
32407;SDS011;18869;55.970;37.502;2022-12-29T06:07:48;10.73;;;4.87;;
32407;SDS011;18869;55.970;37.502;2022-12-29T06:10:16;5.77;;;5.20;;
32407;SDS011;18869;55.970;37.502;2022-12-29T06:12:44;6.77;;;5.97;;
32407;SDS011;18869;55.970;37.502;2022-12-29T06:15:14;11.93;;;5.70;;
32407;SDS011;18869;55.970;37.502;2022-12-29T06:17:43;7.20;;;5.30;;
32407;SDS011;18869;55.970;37.502;2022-12-29T06:20:12;5.87;;;5.23;;
32407;SDS011;18869;55.970;37.502;2022-12-29T06:22:41;6.17;;;5.53;;
32407;SDS011;18869;55.970;37.502;2022-12-29T06:25:13;5.57;;;5.10;;
32407;SDS011;18869;55.970;37.502;2022-12-29T06:27:41;9.40;;;5.07;;
32407;SDS011;18869;55.970;37.502;2022-12-29T06:30:09;7.07;;;5.00;;
32407;SDS011;18869;55.970;37.502;2022-12-29T06:32:39;8.17;;;5.93;;
32407;SDS011;18869;55.970;37.502;2022-12-29T06:35:07;6.93;;;4.80;;
32407;SDS011;18869;55.970;37.502;2022-12-29T06:37:35;13.40;;;5.37;;
32407;SDS011;18869;55.970;37.502;2022-12-29T06:40:04;5.80;;;4.73;;
32407;SDS011;18869;55.970;37.502;2022-12-29T06:42:34;6.00;;;5.33;;
32407;SDS011;18869;55.970;37.502;2022-12-29T06:45:04;11.00;;;4.87;;
32407;SDS011;18869;55.970;37.502;2022-12-29T06:47:33;5.20;;;4.20;;
32407;SDS011;18869;55.970;37.502;2022-12-29T06:50:00;8.83;;;5.53;;
32407;SDS011;18869;55.970;37.502;2022-12-29T06:52:29;6.57;;;4.87;;
32407;SDS011;18869;55.970;37.502;2022-12-29T06:54:56;5.90;;;5.20;;
32407;SDS011;18869;55.970;37.502;2022-12-29T06:57:24;8.53;;;5.50;;
32407;SDS011;18869;55.970;37.502;2022-12-29T06:59:55;12.03;;;5.50;;
32407;SDS011;18869;55.970;37.502;2022-12-29T07:02:23;5.90;;;5.30;;
32407;SDS011;18869;55.970;37.502;2022-12-29T07:04:52;7.67;;;5.53;;
32407;SDS011;18869;55.970;37.502;2022-12-29T07:07:20;9.83;;;6.03;;
32407;SDS011;18869;55.970;37.502;2022-12-29T07:09:47;7.47;;;5.50;;
32407;SDS011;18869;55.970;37.502;2022-12-29T07:12:15;6.87;;;6.13;;
32407;SDS011;18869;55.970;37.502;2022-12-29T07:14:43;6.63;;;5.47;;
32407;SDS011;18869;55.970;37.502;2022-12-29T07:17:12;6.97;;;6.00;;
32407;SDS011;18869;55.970;37.502;2022-12-29T07:19:40;11.37;;;6.53;;
32407;SDS011;18869;55.970;37.502;2022-12-29T07:22:07;7.43;;;5.83;;
32407;SDS011;18869;55.970;37.502;2022-12-29T07:24:36;17.23;;;8.60;;
32407;SDS011;18869;55.970;37.502;2022-12-29T07:27:04;9.93;;;5.67;;
32407;SDS011;18869;55.970;37.502;2022-12-29T07:29:31;7.07;;;5.67;;
32407;SDS011;18869;55.970;37.502;2022-12-29T07:31:59;10.03;;;6.00;;
32407;SDS011;18869;55.970;37.502;2022-12-29T07:34:28;8.10;;;6.07;;
32407;SDS011;18869;55.970;37.502;2022-12-29T07:36:56;7.87;;;6.33;;
32407;SDS011;18869;55.970;37.502;2022-12-29T07:39:23;6.57;;;5.97;;
32407;SDS011;18869;55.970;37.502;2022-12-29T07:41:51;9.77;;;7.07;;
32407;SDS011;18869;55.970;37.502;2022-12-29T07:44:20;11.00;;;7.30;;
32407;SDS011;18869;55.970;37.502;2022-12-29T07:46:49;10.47;;;7.33;;
32407;SDS011;18869;55.970;37.502;2022-12-29T07:49:18;11.77;;;8.13;;
32407;SDS011;18869;55.970;37.502;2022-12-29T07:51:47;7.00;;;6.17;;
32407;SDS011;18869;55.970;37.502;2022-12-29T07:54:15;7.87;;;6.67;;
32407;SDS011;18869;55.970;37.502;2022-12-29T07:56:45;8.10;;;6.97;;
32407;SDS011;18869;55.970;37.502;2022-12-29T07:59:12;8.47;;;6.27;;
32407;SDS011;18869;55.970;37.502;2022-12-29T08:01:40;8.50;;;6.03;;
32407;SDS011;18869;55.970;37.502;2022-12-29T08:04:08;10.67;;;6.27;;
32407;SDS011;18869;55.970;37.502;2022-12-29T08:06:36;13.53;;;8.13;;
32407;SDS011;18869;55.970;37.502;2022-12-29T08:09:06;9.67;;;6.67;;
32407;SDS011;18869;55.970;37.502;2022-12-29T08:11:33;7.63;;;6.97;;
32407;SDS011;18869;55.970;37.502;2022-12-29T08:14:02;7.40;;;6.70;;
32407;SDS011;18869;55.970;37.502;2022-12-29T08:16:32;11.73;;;7.07;;
32407;SDS011;18869;55.970;37.502;2022-12-29T08:19:00;10.30;;;7.20;;
32407;SDS011;18869;55.970;37.502;2022-12-29T08:21:29;7.80;;;7.00;;
32407;SDS011;18869;55.970;37.502;2022-12-29T08:23:59;8.47;;;6.77;;
32407;SDS011;18869;55.970;37.502;2022-12-29T08:26:28;9.67;;;7.03;;
32407;SDS011;18869;55.970;37.502;2022-12-29T08:28:56;8.03;;;7.23;;
32407;SDS011;18869;55.970;37.502;2022-12-29T08:31:24;14.20;;;7.37;;
32407;SDS011;18869;55.970;37.502;2022-12-29T08:33:51;8.83;;;7.50;;
32407;SDS011;18869;55.970;37.502;2022-12-29T08:36:18;11.07;;;8.40;;
32407;SDS011;18869;55.970;37.502;2022-12-29T08:38:47;9.10;;;7.53;;
32407;SDS011;18869;55.970;37.502;2022-12-29T08:41:14;7.80;;;7.00;;
32407;SDS011;18869;55.970;37.502;2022-12-29T08:43:46;11.07;;;8.27;;
32407;SDS011;18869;55.970;37.502;2022-12-29T08:46:17;8.50;;;7.03;;
32407;SDS011;18869;55.970;37.502;2022-12-29T08:48:45;8.77;;;7.77;;
32407;SDS011;18869;55.970;37.502;2022-12-29T08:51:12;8.20;;;7.40;;
32407;SDS011;18869;55.970;37.502;2022-12-29T08:53:43;10.63;;;7.60;;
32407;SDS011;18869;55.970;37.502;2022-12-29T08:56:10;8.67;;;6.73;;
32407;SDS011;18869;55.970;37.502;2022-12-29T08:58:39;11.00;;;6.77;;
32407;SDS011;18869;55.970;37.502;2022-12-29T09:01:08;8.13;;;7.40;;
32407;SDS011;18869;55.970;37.502;2022-12-29T09:03:37;8.50;;;7.63;;
32407;SDS011;18869;55.970;37.502;2022-12-29T09:06:04;13.87;;;7.90;;
32407;SDS011;18869;55.970;37.502;2022-12-29T09:08:32;11.53;;;8.70;;
32407;SDS011;18869;55.970;37.502;2022-12-29T09:11:05;11.53;;;7.90;;
32407;SDS011;18869;55.970;37.502;2022-12-29T09:13:34;10.13;;;8.30;;
32407;SDS011;18869;55.970;37.502;2022-12-29T09:16:02;10.53;;;8.67;;
32407;SDS011;18869;55.970;37.502;2022-12-29T09:18:32;12.93;;;9.03;;
32407;SDS011;18869;55.970;37.502;2022-12-29T09:21:01;14.10;;;8.53;;
32407;SDS011;18869;55.970;37.502;2022-12-29T09:23:30;12.17;;;11.00;;
32407;SDS011;18869;55.970;37.502;2022-12-29T09:25:57;12.70;;;10.07;;
32407;SDS011;18869;55.970;37.502;2022-12-29T09:28:26;11.17;;;9.33;;
32407;SDS011;18869;55.970;37.502;2022-12-29T09:30:56;9.17;;;8.23;;
32407;SDS011;18869;55.970;37.502;2022-12-29T09:33:24;11.23;;;7.73;;
32407;SDS011;18869;55.970;37.502;2022-12-29T09:35:56;10.17;;;8.13;;
32407;SDS011;18869;55.970;37.502;2022-12-29T09:38:26;9.87;;;7.67;;
32407;SDS011;18869;55.970;37.502;2022-12-29T09:40:55;10.70;;;6.70;;
32407;SDS011;18869;55.970;37.502;2022-12-29T09:43:40;13.43;;;10.57;;
32407;SDS011;18869;55.970;37.502;2022-12-29T09:46:15;11.23;;;9.80;;
32407;SDS011;18869;55.970;37.502;2022-12-29T09:48:47;11.43;;;9.60;;
32407;SDS011;18869;55.970;37.502;2022-12-29T09:51:23;9.40;;;8.40;;
32407;SDS011;18869;55.970;37.502;2022-12-29T09:53:52;16.60;;;8.67;;
32407;SDS011;18869;55.970;37.502;2022-12-29T09:56:21;8.70;;;7.20;;
32407;SDS011;18869;55.970;37.502;2022-12-29T09:58:52;12.20;;;8.00;;
32407;SDS011;18869;55.970;37.502;2022-12-29T10:01:26;8.60;;;7.80;;
32407;SDS011;18869;55.970;37.502;2022-12-29T10:03:57;9.87;;;7.37;;
32407;SDS011;18869;55.970;37.502;2022-12-29T10:06:32;7.70;;;6.93;;
32407;SDS011;18869;55.970;37.502;2022-12-29T10:09:02;8.77;;;7.87;;
32407;SDS011;18869;55.970;37.502;2022-12-29T10:11:38;9.47;;;7.80;;
32407;SDS011;18869;55.970;37.502;2022-12-29T10:14:22;8.77;;;7.50;;
32407;SDS011;18869;55.970;37.502;2022-12-29T10:17:14;9.33;;;7.03;;
32407;SDS011;18869;55.970;37.502;2022-12-29T10:19:59;10.90;;;7.80;;
32407;SDS011;18869;55.970;37.502;2022-12-29T10:22:38;10.20;;;8.27;;
32407;SDS011;18869;55.970;37.502;2022-12-29T10:25:24;10.03;;;7.13;;
32407;SDS011;18869;55.970;37.502;2022-12-29T10:27:53;8.43;;;7.47;;
32407;SDS011;18869;55.970;37.502;2022-12-29T10:30:23;8.13;;;7.40;;
32407;SDS011;18869;55.970;37.502;2022-12-29T10:32:51;9.40;;;8.60;;
32407;SDS011;18869;55.970;37.502;2022-12-29T10:35:22;11.13;;;7.77;;
32407;SDS011;18869;55.970;37.502;2022-12-29T10:37:55;9.60;;;7.70;;
32407;SDS011;18869;55.970;37.502;2022-12-29T10:40:27;9.60;;;7.73;;
32407;SDS011;18869;55.970;37.502;2022-12-29T10:42:57;11.47;;;8.97;;
32407;SDS011;18869;55.970;37.502;2022-12-29T10:45:26;9.23;;;8.40;;
32407;SDS011;18869;55.970;37.502;2022-12-29T10:47:59;14.70;;;8.13;;
32407;SDS011;18869;55.970;37.502;2022-12-29T10:50:29;11.90;;;8.00;;
32407;SDS011;18869;55.970;37.502;2022-12-29T10:52:58;8.60;;;7.77;;
32407;SDS011;18869;55.970;37.502;2022-12-29T10:55:30;8.93;;;8.03;;
32407;SDS011;18869;55.970;37.502;2022-12-29T10:58:00;8.70;;;8.10;;
32407;SDS011;18869;55.970;37.502;2022-12-29T11:00:34;10.43;;;7.70;;
32407;SDS011;18869;55.970;37.502;2022-12-29T11:06:14;9.13;;;8.33;;
32407;SDS011;18869;55.970;37.502;2022-12-29T11:08:47;10.37;;;8.53;;
32407;SDS011;18869;55.970;37.502;2022-12-29T11:11:24;11.40;;;8.10;;
32407;SDS011;18869;55.970;37.502;2022-12-29T11:13:57;11.13;;;9.10;;
32407;SDS011;18869;55.970;37.502;2022-12-29T11:16:27;14.37;;;8.37;;
32407;SDS011;18869;55.970;37.502;2022-12-29T11:18:56;9.60;;;8.27;;
32407;SDS011;18869;55.970;37.502;2022-12-29T11:21:25;8.37;;;7.33;;
32407;SDS011;18869;55.970;37.502;2022-12-29T11:23:59;13.07;;;7.93;;
32407;SDS011;18869;55.970;37.502;2022-12-29T11:26:28;13.17;;;9.20;;
32407;SDS011;18869;55.970;37.502;2022-12-29T11:29:16;12.97;;;10.50;;
32407;SDS011;18869;55.970;37.502;2022-12-29T11:31:49;13.30;;;8.77;;
32407;SDS011;18869;55.970;37.502;2022-12-29T11:34:18;9.37;;;8.47;;
32407;SDS011;18869;55.970;37.502;2022-12-29T11:36:49;9.47;;;8.47;;
32407;SDS011;18869;55.970;37.502;2022-12-29T11:39:31;9.10;;;8.30;;
32407;SDS011;18869;55.970;37.502;2022-12-29T11:42:05;12.60;;;9.00;;
32407;SDS011;18869;55.970;37.502;2022-12-29T11:44:37;10.37;;;9.43;;
32407;SDS011;18869;55.970;37.502;2022-12-29T11:47:12;9.20;;;8.27;;
32407;SDS011;18869;55.970;37.502;2022-12-29T11:49:49;10.03;;;8.60;;
32407;SDS011;18869;55.970;37.502;2022-12-29T11:52:21;12.60;;;10.33;;
32407;SDS011;18869;55.970;37.502;2022-12-29T11:54:51;15.00;;;10.17;;
32407;SDS011;18869;55.970;37.502;2022-12-29T11:57:20;14.80;;;10.10;;
32407;SDS011;18869;55.970;37.502;2022-12-29T11:59:51;11.97;;;9.17;;
32407;SDS011;18869;55.970;37.502;2022-12-29T12:02:26;12.17;;;9.93;;
32407;SDS011;18869;55.970;37.502;2022-12-29T12:05:01;13.17;;;10.00;;
32407;SDS011;18869;55.970;37.502;2022-12-29T12:07:36;11.97;;;10.43;;
32407;SDS011;18869;55.970;37.502;2022-12-29T12:10:12;13.27;;;10.17;;
32407;SDS011;18869;55.970;37.502;2022-12-29T12:12:46;12.43;;;9.80;;
32407;SDS011;18869;55.970;37.502;2022-12-29T12:15:17;11.23;;;10.13;;
32407;SDS011;18869;55.970;37.502;2022-12-29T12:17:50;16.47;;;9.60;;
32407;SDS011;18869;55.970;37.502;2022-12-29T12:20:22;15.73;;;10.30;;
32407;SDS011;18869;55.970;37.502;2022-12-29T12:22:58;14.10;;;10.17;;
32407;SDS011;18869;55.970;37.502;2022-12-29T12:25:30;15.07;;;11.17;;
32407;SDS011;18869;55.970;37.502;2022-12-29T12:28:02;18.87;;;11.60;;
32407;SDS011;18869;55.970;37.502;2022-12-29T12:30:39;12.87;;;10.70;;
32407;SDS011;18869;55.970;37.502;2022-12-29T12:33:14;13.53;;;12.13;;
32407;SDS011;18869;55.970;37.502;2022-12-29T12:35:47;18.10;;;12.60;;
32407;SDS011;18869;55.970;37.502;2022-12-29T12:38:23;17.33;;;11.77;;
32407;SDS011;18869;55.970;37.502;2022-12-29T12:40:59;12.93;;;11.53;;
32407;SDS011;18869;55.970;37.502;2022-12-29T12:46:44;13.17;;;10.33;;
32407;SDS011;18869;55.970;37.502;2022-12-29T12:49:31;19.10;;;11.77;;
32407;SDS011;18869;55.970;37.502;2022-12-29T12:52:29;20.53;;;11.30;;
32407;SDS011;18869;55.970;37.502;2022-12-29T12:55:18;14.87;;;10.60;;
32407;SDS011;18869;55.970;37.502;2022-12-29T12:58:01;16.97;;;11.67;;
32407;SDS011;18869;55.970;37.502;2022-12-29T13:00:34;16.30;;;11.47;;
32407;SDS011;18869;55.970;37.502;2022-12-29T13:03:10;20.03;;;12.03;;
32407;SDS011;18869;55.970;37.502;2022-12-29T13:05:45;21.00;;;15.17;;
32407;SDS011;18869;55.970;37.502;2022-12-29T13:08:24;21.87;;;13.27;;
32407;SDS011;18869;55.970;37.502;2022-12-29T13:11:02;16.90;;;13.37;;
32407;SDS011;18869;55.970;37.502;2022-12-29T13:13:43;17.73;;;13.20;;
32407;SDS011;18869;55.970;37.502;2022-12-29T13:16:17;17.50;;;11.87;;
32407;SDS011;18869;55.970;37.502;2022-12-29T13:18:55;13.03;;;10.63;;
32407;SDS011;18869;55.970;37.502;2022-12-29T13:21:29;13.10;;;10.63;;
32407;SDS011;18869;55.970;37.502;2022-12-29T13:24:02;17.03;;;12.27;;
32407;SDS011;18869;55.970;37.502;2022-12-29T13:26:37;14.13;;;11.90;;
32407;SDS011;18869;55.970;37.502;2022-12-29T13:29:12;15.07;;;10.87;;
32407;SDS011;18869;55.970;37.502;2022-12-29T13:31:45;16.73;;;11.87;;
32407;SDS011;18869;55.970;37.502;2022-12-29T13:34:21;13.67;;;11.80;;
32407;SDS011;18869;55.970;37.502;2022-12-29T13:36:58;14.93;;;12.03;;
32407;SDS011;18869;55.970;37.502;2022-12-29T13:39:30;13.67;;;11.40;;
32407;SDS011;18869;55.970;37.502;2022-12-29T13:42:01;16.50;;;11.60;;
32407;SDS011;18869;55.970;37.502;2022-12-29T13:44:33;14.83;;;11.23;;
32407;SDS011;18869;55.970;37.502;2022-12-29T13:47:05;15.03;;;13.37;;
32407;SDS011;18869;55.970;37.502;2022-12-29T13:49:39;17.43;;;13.13;;
32407;SDS011;18869;55.970;37.502;2022-12-29T13:52:09;13.60;;;10.17;;
32407;SDS011;18869;55.970;37.502;2022-12-29T13:54:43;15.30;;;11.07;;
32407;SDS011;18869;55.970;37.502;2022-12-29T13:57:18;16.40;;;12.57;;
32407;SDS011;18869;55.970;37.502;2022-12-29T13:59:54;13.50;;;11.37;;
32407;SDS011;18869;55.970;37.502;2022-12-29T14:02:26;13.80;;;11.37;;
32407;SDS011;18869;55.970;37.502;2022-12-29T14:05:00;15.40;;;11.83;;
32407;SDS011;18869;55.970;37.502;2022-12-29T14:07:29;14.43;;;11.60;;
32407;SDS011;18869;55.970;37.502;2022-12-29T14:10:03;14.77;;;11.87;;
32407;SDS011;18869;55.970;37.502;2022-12-29T14:12:32;16.10;;;12.87;;
32407;SDS011;18869;55.970;37.502;2022-12-29T14:15:13;16.50;;;11.77;;
32407;SDS011;18869;55.970;37.502;2022-12-29T14:18:00;15.97;;;12.43;;
32407;SDS011;18869;55.970;37.502;2022-12-29T14:20:32;15.77;;;11.97;;
32407;SDS011;18869;55.970;37.502;2022-12-29T14:23:15;14.30;;;11.70;;
32407;SDS011;18869;55.970;37.502;2022-12-29T14:25:57;15.57;;;13.20;;
32407;SDS011;18869;55.970;37.502;2022-12-29T14:28:26;16.47;;;12.00;;
32407;SDS011;18869;55.970;37.502;2022-12-29T14:34:26;17.73;;;13.83;;
32407;SDS011;18869;55.970;37.502;2022-12-29T14:36:59;14.40;;;12.27;;
32407;SDS011;18869;55.970;37.502;2022-12-29T14:39:44;14.47;;;12.27;;
32407;SDS011;18869;55.970;37.502;2022-12-29T14:42:13;14.77;;;12.50;;
32407;SDS011;18869;55.970;37.502;2022-12-29T14:44:51;18.90;;;12.50;;
32407;SDS011;18869;55.970;37.502;2022-12-29T14:47:25;17.97;;;12.63;;
32407;SDS011;18869;55.970;37.502;2022-12-29T14:49:57;17.20;;;12.93;;
32407;SDS011;18869;55.970;37.502;2022-12-29T14:52:44;19.00;;;13.53;;
32407;SDS011;18869;55.970;37.502;2022-12-29T14:55:32;15.33;;;12.10;;
32407;SDS011;18869;55.970;37.502;2022-12-29T14:58:25;13.93;;;11.97;;
32407;SDS011;18869;55.970;37.502;2022-12-29T15:01:03;19.20;;;13.23;;
32407;SDS011;18869;55.970;37.502;2022-12-29T15:03:50;20.17;;;12.57;;
32407;SDS011;18869;55.970;37.502;2022-12-29T15:06:37;14.67;;;12.07;;
32407;SDS011;18869;55.970;37.502;2022-12-29T15:09:31;15.23;;;12.63;;
32407;SDS011;18869;55.970;37.502;2022-12-29T15:12:04;15.47;;;12.27;;
32407;SDS011;18869;55.970;37.502;2022-12-29T15:14:34;18.27;;;13.23;;